Time;durP1;ratioP1;P1;durP2;ratioP2;P2;SDS_P1;SDS_P2;PMS_P1;PMS_P2;Temp;Humidity;BMP_temperature;BMP_pressure;BME280_temperature;BME280_humidity;BME280_pressure;Samples;Min_cycle;Max_cycle;Signal;HPM_P1;HPM_P2
2022/06/25 00:01:52;;;;;;;4.08;3.15;;;;;;;21.64;44.87;98815.03;1761359;81;20991;-42
2022/06/25 00:07:03;;;;;;;5.05;2.80;;;;;;;21.61;44.98;98812.69;1761216;80;20979;-42
2022/06/25 00:09:28;;;;;;;6.87;3.00;;;;;;;21.57;44.97;98817.53;1761412;81;21163;-41
2022/06/25 00:14:38;;;;;;;6.62;3.00;;;;;;;21.58;44.91;98813.04;1761339;81;20975;-42
2022/06/25 00:17:05;;;;;;;5.37;2.83;;;;;;;21.56;44.96;98813.72;1761232;81;21027;-40
2022/06/25 00:19:31;;;;;;;;;;;;;;;21.55;45.00;98810.69;1763968;81;21042;-41
2022/06/25 00:21:57;;;;;;;3.00;2.67;;;;;;;21.49;45.29;98815.38;1761613;81;20456;-42
2022/06/25 00:24:22;;;;;;;4.40;3.10;;;;;;;21.49;44.97;98813.53;1761300;81;20967;-41
2022/06/25 00:26:49;;;;;;;6.75;2.98;;;;;;;21.40;44.97;98812.66;1761215;80;21059;-40
2022/06/25 00:29:15;;;;;;;6.08;2.87;;;;;;;21.38;45.17;98803.97;1761398;81;20991;-41
2022/06/25 00:31:41;;;;;;;7.25;2.75;;;;;;;21.36;45.13;98803.81;1761397;81;21038;-39
2022/06/25 00:34:07;;;;;;;5.40;2.83;;;;;;;21.33;45.09;98800.95;1761233;80;20999;-44
2022/06/25 00:36:33;;;;;;;4.87;2.70;;;;;;;21.34;45.11;98805.78;1761269;81;21003;-40
2022/06/25 00:38:59;;;;;;;5.17;3.15;;;;;;;21.33;45.06;98797.44;1761331;81;20959;-41
2022/06/25 00:41:25;;;;;;;5.42;3.25;;;;;;;21.31;45.12;98802.95;1761246;81;20991;-40
2022/06/25 00:43:51;;;;;;;6.40;3.40;;;;;;;21.28;45.12;98805.95;1761536;81;20999;-40
2022/06/25 00:46:17;;;;;;;4.17;3.30;;;;;;;21.27;45.18;98805.63;1761262;81;21027;-39
2022/06/25 00:48:43;;;;;;;4.92;3.00;;;;;;;21.26;45.30;98802.09;1761243;81;21143;-40
2022/06/25 00:51:14;;;;;;;5.75;3.20;;;;;;;21.24;45.29;98801.94;1761300;81;20995;-42
2022/06/25 00:53:44;;;;;;;5.35;2.95;;;;;;;21.21;45.31;98796.44;1761427;81;21035;-40
2022/06/25 00:56:12;;;;;;;3.20;2.77;;;;;;;21.21;45.25;98791.56;1761274;81;21018;-40
2022/06/25 00:58:42;;;;;;;6.40;2.90;;;;;;;21.18;45.27;98797.27;1761386;81;21846;-40
2022/06/25 01:01:09;;;;;;;4.87;2.75;;;;;;;21.15;45.29;98791.73;1761222;81;21472;-39
2022/06/25 01:03:37;;;;;;;7.45;3.02;;;;;;;21.12;45.44;98797.42;1761039;81;21481;-40
2022/06/25 01:06:04;;;;;;;5.65;2.87;;;;;;;21.12;45.47;98796.56;1761322;81;20999;-40
2022/06/25 01:08:35;;;;;;;6.08;3.02;;;;;;;21.11;45.54;98798.41;1761268;81;21503;-41
2022/06/25 01:11:02;;;;;;;4.33;2.72;;;;;;;21.07;45.58;98795.74;1761268;81;20999;-41
2022/06/25 01:13:30;;;;;;;;;;;;;;;21.00;45.66;98798.73;1764078;80;21026;-41
2022/06/25 01:15:55;;;;;;;9.28;3.02;;;;;;;20.94;46.25;98792.20;1761480;80;20097;-40
2022/06/25 01:18:21;;;;;;;3.50;2.67;;;;;;;20.95;45.65;98793.86;1761510;81;21508;-39
2022/06/25 01:20:47;;;;;;;4.45;2.92;;;;;;;20.90;45.84;98793.52;1761444;81;21543;-39
2022/06/25 01:23:13;;;;;;;3.90;2.77;;;;;;;20.91;45.90;98796.53;1761404;81;21007;-40
2022/06/25 01:25:40;;;;;;;5.53;2.70;;;;;;;20.89;45.95;98788.67;1761669;81;20983;-42
2022/06/25 01:28:08;;;;;;;7.42;3.02;;;;;;;20.87;46.09;98789.85;1749773;80;21020;-40
2022/06/25 01:30:34;;;;;;;5.00;2.70;;;;;;;20.86;46.04;98786.83;1748273;82;20980;-39
2022/06/25 01:33:00;;;;;;;5.53;2.55;;;;;;;20.84;46.09;98784.31;1748268;81;21859;-41
2022/06/25 01:35:26;;;;;;;9.75;2.98;;;;;;;20.84;46.05;98780.81;1748084;81;20980;-41
2022/06/25 01:37:52;;;;;;;3.42;2.52;;;;;;;20.82;46.16;98780.14;1748036;81;21456;-40
2022/06/25 01:40:18;;;;;;;5.35;3.37;;;;;;;20.79;46.19;98775.97;1748116;81;21052;-39
2022/06/25 01:42:59;;;;;;;4.00;2.95;;;;;;;20.79;46.19;98780.45;1748084;81;20991;-39
2022/06/25 01:45:29;;;;;;;5.22;2.80;;;;;;;20.76;46.21;98777.62;1748041;81;20991;-39
2022/06/25 01:47:56;;;;;;;6.12;2.77;;;;;;;20.77;46.23;98771.77;1746279;81;20992;-40
2022/06/25 01:50:21;;;;;;;5.75;2.85;;;;;;;20.71;46.32;98775.42;1748359;81;21007;-41
2022/06/25 01:52:47;;;;;;;3.40;3.10;;;;;;;20.70;46.37;98780.45;1748049;81;20999;-40
2022/06/25 01:55:14;;;;;;;2.72;2.45;;;;;;;20.68;46.35;98774.91;1747998;82;21000;-40
2022/06/25 01:57:41;;;;;;;5.47;3.17;;;;;;;20.65;46.37;98780.09;1748164;81;20999;-41
2022/06/25 02:00:12;;;;;;;3.80;2.75;;;;;;;20.62;46.42;98780.41;1748132;81;20987;-42
2022/06/25 02:02:38;;;;;;;4.40;3.12;;;;;;;20.60;46.42;98781.05;1748046;82;21496;-39
2022/06/25 02:05:05;;;;;;;6.28;2.92;;;;;;;20.56;46.61;98778.36;1748364;81;20983;-40
2022/06/25 02:07:31;;;;;;;;;;;;;;;20.55;46.57;98781.19;1750743;81;21000;-39
2022/06/25 02:09:57;;;;;;;6.55;2.80;;;;;;;20.50;47.26;98783.86;1748240;81;20113;-41
2022/06/25 02:12:23;;;;;;;4.95;2.90;;;;;;;20.48;46.67;98783.66;1748019;81;21507;-40
2022/06/25 02:14:49;;;;;;;3.83;2.95;;;;;;;20.45;46.86;98784.00;1748063;81;20970;-41
2022/06/25 02:17:14;;;;;;;3.47;2.60;;;;;;;20.42;46.91;98779.80;1737541;82;20996;-41
2022/06/25 02:19:40;;;;;;;4.55;2.83;;;;;;;20.41;47.16;98781.29;1748042;81;20995;-39
2022/06/25 02:22:06;;;;;;;8.23;2.85;;;;;;;20.41;47.04;98775.95;1748026;81;21537;-40
2022/06/25 02:24:32;;;;;;;3.52;2.62;;;;;;;20.39;47.12;98785.48;1747977;81;20988;-39
2022/06/25 02:26:58;;;;;;;8.25;2.75;;;;;;;20.35;47.45;98780.09;1747984;80;21016;-41
2022/06/25 02:29:24;;;;;;;4.28;3.25;;;;;;;20.31;47.33;98778.75;1748227;81;20995;-39
2022/06/25 02:31:50;;;;;;;8.85;2.67;;;;;;;20.22;47.65;98781.87;1748059;81;21022;-40
2022/06/25 02:34:16;;;;;;;5.37;2.95;;;;;;;20.20;47.86;98781.70;1748064;82;20949;-41
2022/06/25 02:36:42;;;;;;;5.53;2.70;;;;;;;20.17;47.86;98776.17;1748007;81;20988;-41
2022/06/25 02:39:07;;;;;;;6.25;2.83;;;;;;;20.14;48.04;98780.52;1747935;81;21018;-39
2022/06/25 02:41:33;;;;;;;5.90;2.87;;;;;;;20.10;48.12;98781.33;1729005;77;21587;-39
2022/06/25 02:43:59;;;;;;;3.05;2.85;;;;;;;20.09;48.37;98794.83;1688074;85;21039;-39
2022/06/25 02:46:26;;;;;;;7.62;2.92;;;;;;;20.06;48.36;98799.14;1688365;85;21027;-39
2022/06/25 02:48:52;;;;;;;6.53;3.08;;;;;;;20.02;48.31;98800.45;1688147;85;21067;-39
2022/06/25 02:51:18;;;;;;;4.90;2.75;;;;;;;19.99;48.37;98814.93;1687611;85;21090;-39
2022/06/25 02:53:44;;;;;;;3.08;2.67;;;;;;;19.99;48.15;98812.77;1688258;85;21088;-38
2022/06/25 02:58:56;;;;;;;3.77;2.62;;;;;;;20.01;48.14;98811.63;1632304;85;21039;-38
2022/06/25 03:01:27;;;;;;;3.10;2.77;;;;;;;20.02;48.08;98815.13;1688379;85;21004;-39
2022/06/25 03:03:55;;;;;;;5.42;3.12;;;;;;;20.02;48.18;98813.80;1688352;85;21019;-39
2022/06/25 03:06:21;;;;;;;;;;;;;;;20.01;48.15;98818.30;1690884;85;20979;-38
2022/06/25 03:08:48;;;;;;;3.87;3.22;;;;;;;19.99;48.62;98812.27;1688352;85;20104;-38
2022/06/25 03:11:14;;;;;;;4.62;3.00;;;;;;;20.02;47.99;98812.47;1688471;85;20983;-38
2022/06/25 03:13:41;;;;;;;3.10;2.80;;;;;;;20.00;48.13;98818.45;1688630;85;21540;-38
2022/06/25 03:16:08;;;;;;;4.33;2.47;;;;;;;20.00;48.14;98807.78;1711426;82;21492;-38
2022/06/25 03:18:35;;;;;;;4.00;2.65;;;;;;;20.03;48.18;98814.13;1688492;85;20991;-38
2022/06/25 03:21:03;;;;;;;8.28;2.80;;;;;;;20.02;48.17;98809.28;1688339;85;21003;-37
2022/06/25 03:23:29;;;;;;;3.22;2.92;;;;;;;20.06;48.17;98799.96;1688390;85;21511;-37
2022/06/25 03:25:55;;;;;;;3.35;2.98;;;;;;;20.04;48.26;98800.62;1688288;85;21007;-38
2022/06/25 03:28:21;;;;;;;3.58;2.77;;;;;;;20.05;48.07;98802.31;1710353;82;21018;-39
2022/06/25 03:30:47;;;;;;;2.53;2.33;;;;;;;20.10;48.07;98802.68;1688530;85;21071;-39
2022/06/25 03:33:13;;;;;;;2.85;2.62;;;;;;;20.10;48.21;98814.69;1688340;85;21051;-38
2022/06/25 03:35:39;;;;;;;2.72;2.52;;;;;;;20.14;48.09;98815.22;1688343;85;21011;-39
2022/06/25 03:38:06;;;;;;;2.77;2.58;;;;;;;20.17;47.97;98810.88;1688574;85;21019;-39
2022/06/25 03:40:32;;;;;;;6.22;2.62;;;;;;;20.18;47.96;98814.41;1688310;85;21050;-39
2022/06/25 03:42:58;;;;;;;5.47;2.50;;;;;;;20.23;47.73;98814.73;1660768;84;21508;-39
2022/06/25 03:45:25;;;;;;;3.02;2.45;;;;;;;20.26;47.71;98809.92;1659426;86;21560;-38
2022/06/25 03:47:51;;;;;;;5.03;2.50;;;;;;;20.28;47.65;98810.63;1651477;86;21002;-41
2022/06/25 03:50:20;;;;;;;3.02;2.47;;;;;;;20.30;47.59;98815.30;1650105;87;21139;-38
2022/06/25 03:52:48;;;;;;;4.62;2.52;;;;;;;20.37;47.43;98820.00;1649034;87;21051;-38
2022/06/25 03:55:14;;;;;;;6.97;2.67;;;;;;;20.41;47.32;98818.20;1650082;87;21059;-38
2022/06/25 03:57:40;;;;;;;4.50;2.33;;;;;;;20.44;47.39;98818.37;1650343;86;21015;-38
2022/06/25 04:00:08;;;;;;;4.40;2.05;;;;;;;20.48;47.41;98832.59;1650149;87;21015;-38
2022/06/25 04:02:35;;;;;;;6.28;2.37;;;;;;;20.51;47.35;98831.42;1650124;86;21890;-38
2022/06/25 04:05:02;;;;;;;2.70;2.50;;;;;;;20.53;47.43;98830.25;1650242;87;21022;-38
2022/06/25 04:07:28;;;;;;;5.00;2.65;;;;;;;20.56;47.52;98832.30;1650215;87;21504;-40
2022/06/25 04:09:54;;;;;;;4.17;2.22;;;;;;;20.57;47.31;98835.28;1650089;86;21027;-40
2022/06/25 04:12:20;;;;;;;5.70;2.95;;;;;;;20.59;47.37;98840.83;1650198;87;21516;-40
2022/06/25 04:14:46;;;;;;;2.72;2.20;;;;;;;20.62;47.42;98835.68;1650190;87;21043;-40
2022/06/25 04:17:12;;;;;;;6.17;2.67;;;;;;;20.64;47.43;98843.03;1650138;85;21047;-40
2022/06/25 04:19:42;;;;;;;3.98;2.83;;;;;;;20.67;47.41;98842.21;1650098;87;20988;-39
2022/06/25 04:22:10;;;;;;;4.30;2.52;;;;;;;20.68;47.23;98838.55;1650078;87;21496;-39
2022/06/25 04:24:38;;;;;;;9.35;2.75;;;;;;;20.70;47.19;98849.92;1649614;86;21500;-38
2022/06/25 04:27:04;;;;;;;8.88;2.62;;;;;;;20.70;47.34;98847.24;1650138;87;21054;-40
2022/06/25 04:29:31;;;;;;;4.97;2.67;;;;;;;20.72;47.27;98847.09;1650373;87;21501;-39
2022/06/25 04:31:57;;;;;;;5.03;2.65;;;;;;;20.74;47.30;98846.91;1650395;86;21508;-39
2022/06/25 04:34:24;;;;;;;5.17;2.60;;;;;;;20.73;47.37;98851.92;1650255;87;21057;-40
2022/06/25 04:36:51;;;;;;;9.07;2.53;;;;;;;20.74;47.59;98855.78;1650307;87;21039;-38
2022/06/25 04:39:17;;;;;;;3.40;2.33;;;;;;;20.77;47.35;98865.30;1650275;87;20991;-38
2022/06/25 04:41:45;;;;;;;3.87;2.47;;;;;;;20.77;47.36;98855.44;1649226;85;21091;-41
2022/06/25 04:44:12;;;;;;;7.30;2.37;;;;;;;20.81;47.28;98858.63;1650181;87;20987;-40
2022/06/25 04:46:38;;;;;;;6.58;2.50;;;;;;;20.84;47.48;98854.30;1650302;87;21055;-40
2022/06/25 04:49:04;;;;;;;3.80;2.58;;;;;;;20.85;47.59;98850.64;1650398;85;21839;-40
2022/06/25 04:51:30;;;;;;;3.02;2.50;;;;;;;20.87;47.65;98845.46;1650356;87;20999;-38
2022/06/25 04:53:56;;;;;;;5.80;2.70;;;;;;;20.92;47.61;98850.81;1650388;87;21091;-39
2022/06/25 04:56:28;;;;;;;9.25;2.67;;;;;;;20.92;47.50;98853.01;1650314;86;21023;-39
2022/06/25 04:58:56;;;;;;;3.58;2.15;;;;;;;20.96;47.41;98857.53;1650350;85;21181;-40
2022/06/25 05:01:23;;;;;;;5.45;2.60;;;;;;;20.99;47.44;98858.05;1650314;87;21015;-40
2022/06/25 05:03:49;;;;;;;8.03;2.55;;;;;;;21.03;47.44;98859.39;1650303;86;21543;-40
2022/06/25 05:06:16;;;;;;;3.05;2.30;;;;;;;21.08;47.31;98857.07;1650267;87;20991;-40
2022/06/25 05:08:42;;;;;;;6.45;2.58;;;;;;;21.11;47.28;98855.89;1650468;87;21039;-40
2022/06/25 05:11:08;;;;;;;5.40;2.02;;;;;;;21.15;47.03;98865.77;1650362;86;21043;-40
2022/06/25 05:13:34;;;;;;;7.15;2.30;;;;;;;21.19;47.06;98864.43;1650590;87;20984;-40
2022/06/25 05:16:01;;;;;;;6.62;2.20;;;;;;;21.24;46.89;98858.09;1649446;87;21599;-40
2022/06/25 05:18:27;;;;;;;2.50;2.30;;;;;;;21.29;46.92;98851.76;1649494;87;21078;-40
2022/06/25 05:20:52;;;;;;;7.25;2.20;;;;;;;21.33;46.83;98845.58;1649483;86;21059;-39
2022/06/25 05:23:19;;;;;;;2.70;2.22;;;;;;;21.36;47.15;98844.75;1650253;87;21007;-38
2022/06/25 05:25:45;;;;;;;4.60;2.20;;;;;;;21.44;46.62;98855.95;1650431;86;21063;-38
2022/06/25 05:28:11;;;;;;;10.53;2.42;;;;;;;21.49;46.74;98855.51;1650027;87;21591;-38
2022/06/25 05:30:37;;;;;;;3.95;2.20;;;;;;;21.54;46.56;98862.52;1649200;87;21073;-38
2022/06/25 05:33:03;;;;;;;2.98;2.20;;;;;;;21.58;46.38;98863.37;1649157;85;21532;-38
2022/06/25 05:35:29;;;;;;;3.42;2.15;;;;;;;21.62;46.32;98861.20;1650324;86;21551;-38
2022/06/25 05:37:55;;;;;;;2.72;1.87;;;;;;;21.67;46.37;98854.84;1650218;87;21071;-38
2022/06/25 05:40:20;;;;;;;3.42;2.10;;;;;;;21.72;46.25;98867.71;1650206;87;21047;-39
2022/06/25 05:42:46;;;;;;;4.83;2.30;;;;;;;21.75;46.14;98865.54;1665450;84;21035;-38
2022/06/25 05:45:13;;;;;;;5.95;2.17;;;;;;;21.82;46.28;98867.88;1687222;85;21011;-38
2022/06/25 05:47:39;;;;;;;4.22;2.47;;;;;;;21.88;46.22;98865.55;1686833;85;21087;-39
2022/06/25 05:50:07;;;;;;;4.67;2.62;;;;;;;21.92;45.99;98868.21;1687302;85;21043;-39
2022/06/25 05:52:33;;;;;;;16.73;2.60;;;;;;;21.97;45.94;98865.36;1687938;85;21143;-39
2022/06/25 05:54:59;;;;;;;6.75;2.05;;;;;;;22.03;45.92;98870.06;1687865;85;21015;-39
2022/06/25 05:57:25;;;;;;;5.95;2.37;;;;;;;22.07;45.75;98857.69;1687999;85;20983;-40
2022/06/25 05:59:51;;;;;;;4.47;2.00;;;;;;;22.11;45.70;98863.86;1687829;85;21023;-40
2022/06/25 06:02:17;;;;;;;3.25;2.10;;;;;;;22.16;45.63;98862.84;1687863;85;21116;-39
2022/06/25 06:04:43;;;;;;;10.95;2.40;;;;;;;22.22;45.56;98863.50;1688037;85;21520;-39
2022/06/25 06:07:09;;;;;;;6.00;2.87;;;;;;;22.27;45.54;98855.51;1687788;85;21050;-39
2022/06/25 06:09:35;;;;;;;7.90;2.40;;;;;;;22.32;45.45;98854.47;1686670;85;21554;-39
2022/06/25 06:12:01;;;;;;;6.50;2.62;;;;;;;22.38;45.32;98865.34;1686788;85;21066;-39
2022/06/25 06:14:28;;;;;;;7.83;2.43;;;;;;;22.43;45.44;98866.19;1687871;85;21537;-39
2022/06/25 06:16:56;;;;;;;10.90;2.60;;;;;;;22.48;45.42;98863.80;1687941;85;21019;-39
2022/06/25 06:19:22;;;;;;;4.25;2.25;;;;;;;22.53;45.23;98872.16;1687791;85;21043;-39
2022/06/25 06:21:48;;;;;;;17.20;2.60;;;;;;;22.60;45.34;98862.43;1688066;85;21054;-40
2022/06/25 06:24:14;;;;;;;6.90;2.10;;;;;;;22.66;45.26;98868.11;1687944;85;20995;-40
2022/06/25 06:26:40;;;;;;;6.33;2.20;;;;;;;22.70;45.09;98866.75;1687852;85;21079;-39
2022/06/25 06:29:06;;;;;;;81.97;5.45;;;;;;;22.77;44.95;98871.75;1687862;85;21055;-40
2022/06/25 06:31:32;;;;;;;29.27;3.58;;;;;;;22.82;44.97;98869.39;1687792;85;20999;-39
2022/06/25 06:33:57;;;;;;;7.03;2.45;;;;;;;22.88;45.12;98871.36;1716049;83;21034;-39
2022/06/25 06:36:23;;;;;;;9.55;3.12;;;;;;;22.94;44.86;98863.98;1685954;85;21524;-39
2022/06/25 06:38:49;;;;;;;23.47;2.83;;;;;;;23.02;44.83;98867.64;1690618;84;21179;-40
2022/06/25 06:41:17;;;;;;;12.55;2.37;;;;;;;23.08;44.79;98870.46;1690649;85;21479;-39
2022/06/25 06:43:43;;;;;;;5.78;2.20;;;;;;;23.17;44.74;98873.95;1690213;85;21015;-39
2022/06/25 06:46:09;;;;;;;10.55;2.83;;;;;;;23.22;44.47;98871.58;1690457;85;21055;-39
2022/06/25 06:48:34;;;;;;;5.83;2.40;;;;;;;23.28;44.15;98868.69;1690566;85;21048;-40
2022/06/25 06:51:00;;;;;;;7.12;2.52;;;;;;;23.34;44.26;98871.51;1690564;85;21015;-40
2022/06/25 06:53:26;;;;;;;7.15;2.08;;;;;;;23.40;44.36;98873.98;1690559;85;21023;-40
2022/06/25 06:55:52;;;;;;;4.85;2.35;;;;;;;23.45;43.96;98872.09;1715981;83;20983;-39
2022/06/25 06:58:18;;;;;;;3.42;1.72;;;;;;;23.52;43.88;98872.56;1685875;85;21860;-39
2022/06/25 07:00:44;;;;;;;7.03;2.27;;;;;;;23.58;43.92;98871.02;1715893;83;21033;-40
2022/06/25 07:03:10;;;;;;;4.85;2.72;;;;;;;23.64;43.66;98873.48;1688118;84;21023;-40
2022/06/25 07:05:36;;;;;;;15.98;3.00;;;;;;;23.71;43.59;98877.12;1695129;85;21200;-39
2022/06/25 07:08:02;;;;;;;13.53;2.30;;;;;;;23.76;43.63;98884.97;1695310;85;21540;-40
2022/06/25 07:10:28;;;;;;;5.58;2.27;;;;;;;23.83;43.45;98889.16;1693128;85;21536;-40
2022/06/25 07:12:54;;;;;;;15.13;2.47;;;;;;;23.87;43.17;98896.34;1695326;85;21011;-40
2022/06/25 07:15:20;;;;;;;9.78;2.15;;;;;;;23.94;43.14;98899.98;1695244;85;21047;-40
2022/06/25 07:17:46;;;;;;;6.37;2.20;;;;;;;23.98;43.06;98913.36;1695241;84;21023;-39
2022/06/25 07:20:12;;;;;;;10.15;2.98;;;;;;;24.02;43.09;98905.78;1695211;85;21054;-40
2022/06/25 07:22:37;;;;;;;13.30;2.25;;;;;;;24.07;43.03;98916.82;1694734;84;21080;-40
2022/06/25 07:25:05;;;;;;;4.67;2.27;;;;;;;24.12;43.10;98909.89;1695236;85;21018;-39
2022/06/25 07:27:30;;;;;;;;;;;;;;;24.15;43.09;98914.88;1697789;85;21029;-41
2022/06/25 07:29:56;;;;;;;8.93;2.60;;;;;;;24.18;42.84;98892.72;1695643;85;20408;-40
2022/06/25 07:32:22;;;;;;;5.12;2.45;;;;;;;24.22;42.92;98901.56;1695273;84;21019;-41
2022/06/25 07:34:48;;;;;;;3.52;2.40;;;;;;;24.28;43.04;98902.68;1695266;84;21151;-40
2022/06/25 07:37:14;;;;;;;5.95;2.20;;;;;;;24.34;42.99;98901.97;1695224;84;21015;-40
2022/06/25 07:39:40;;;;;;;3.17;2.33;;;;;;;24.38;42.83;98900.58;1695477;85;21011;-41
2022/06/25 07:42:06;;;;;;;7.62;2.47;;;;;;;24.41;42.79;98900.19;1694876;85;21509;-40
2022/06/25 07:44:32;;;;;;;13.18;2.52;;;;;;;24.46;42.87;98901.81;1686542;85;21533;-40
2022/06/25 07:46:57;;;;;;;13.90;2.25;;;;;;;24.51;42.63;98899.42;1685618;85;21008;-41
2022/06/25 07:49:23;;;;;;;3.40;2.40;;;;;;;24.55;42.65;98893.72;1685597;85;21012;-40
2022/06/25 07:52:01;;;;;;;4.53;2.30;;;;;;;24.66;42.42;98895.94;1685572;85;21043;-40
2022/06/25 07:54:30;;;;;;;3.83;2.60;;;;;;;24.71;42.48;98897.56;1685544;85;21501;-40
2022/06/25 07:56:58;;;;;;;18.10;3.60;;;;;;;24.79;42.50;98896.63;1685516;85;21014;-38
2022/06/25 07:59:24;;;;;;;6.20;2.35;;;;;;;24.88;42.57;98898.20;1685589;85;21473;-38
2022/06/25 08:01:50;;;;;;;8.03;2.60;;;;;;;24.94;42.44;98895.27;1685533;85;21623;-38
2022/06/25 08:04:16;;;;;;;9.40;2.70;;;;;;;25.02;42.57;98894.66;1711287;82;21042;-39
2022/06/25 08:06:43;;;;;;;11.20;2.87;;;;;;;25.12;42.30;98902.95;1688231;85;20984;-38
2022/06/25 08:09:09;;;;;;;9.45;3.45;;;;;;;25.26;41.92;98906.16;1688411;85;21022;-39
2022/06/25 08:11:36;;;;;;;6.97;2.98;;;;;;;25.26;41.92;98906.16;1688441;85;21063;-40
2022/06/25 08:14:03;;;;;;;4.83;2.60;;;;;;;25.35;42.01;98901.50;1688465;85;21012;-39
2022/06/25 08:16:29;;;;;;;;;;;;;;;25.47;41.70;98900.81;1689646;84;21034;-38
2022/06/25 08:18:55;;;;;;;4.50;2.20;;;;;;;25.57;41.74;98907.22;1677769;85;20119;-40
2022/06/25 08:21:21;;;;;;;4.73;2.53;;;;;;;25.66;41.16;98908.76;1678084;85;21615;-39
2022/06/25 08:23:47;;;;;;;7.58;2.50;;;;;;;25.75;41.13;98916.73;1677308;85;21069;-39
2022/06/25 08:26:15;;;;;;;4.20;2.35;;;;;;;25.82;41.08;98912.24;1677754;85;21010;-41
2022/06/25 08:28:42;;;;;;;4.53;2.50;;;;;;;25.90;41.11;98917.48;1677508;85;21017;-40
2022/06/25 08:31:08;;;;;;;8.33;2.77;;;;;;;26.00;40.96;98910.47;1677836;85;21022;-40
2022/06/25 08:33:34;;;;;;;113.12;8.53;;;;;;;26.15;41.04;98921.16;1677772;85;21459;-39
2022/06/25 08:36:00;;;;;;;56.65;8.68;;;;;;;26.32;40.98;98914.44;1677791;85;21018;-38
2022/06/25 08:38:26;;;;;;;807.83;98.90;;;;;;;26.55;40.65;98914.72;1677654;85;21499;-39
2022/06/25 08:40:57;;;;;;;32.13;6.83;;;;;;;26.75;40.69;98914.36;1677838;85;21054;-41
2022/06/25 08:43:24;;;;;;;68.78;9.05;;;;;;;26.93;39.95;98917.05;1679875;85;21049;-42
2022/06/25 08:45:50;;;;;;;35.92;6.50;;;;;;;27.12;39.60;98905.53;1684332;85;21025;-40
2022/06/25 08:48:22;;;;;;;28.43;3.93;;;;;;;27.31;39.14;98913.93;1684591;85;21069;-40
2022/06/25 08:50:49;;;;;;;9.13;3.52;;;;;;;27.45;38.74;98917.48;1684235;85;21005;-39
2022/06/25 08:53:16;;;;;;;93.90;9.75;;;;;;;27.55;38.21;98917.94;1684631;85;21483;-41
2022/06/25 08:55:45;;;;;;;59.45;6.60;;;;;;;27.61;37.86;98916.29;1684222;85;21521;-42
2022/06/25 08:58:12;;;;;;;22.80;3.62;;;;;;;27.73;37.82;98918.19;1684401;85;21057;-42
2022/06/25 09:00:45;;;;;;;14.07;6.33;;;;;;;27.88;37.79;98916.64;1684406;85;21490;-41
2022/06/25 09:03:11;;;;;;;4.10;2.75;;;;;;;28.12;37.09;98919.80;1684378;85;21061;-41
2022/06/25 09:05:43;;;;;;;62.97;4.77;;;;;;;28.24;36.64;98915.97;1684697;85;21021;-40
2022/06/25 09:08:13;;;;;;;11.40;2.80;;;;;;;28.45;37.04;98927.07;1684173;85;21017;-43
2022/06/25 09:10:41;;;;;;;4.10;2.17;;;;;;;28.51;36.27;98924.37;1684421;85;21021;-40
2022/06/25 09:13:10;;;;;;;6.33;2.15;;;;;;;28.67;36.59;98921.78;1684255;85;21163;-40
2022/06/25 09:15:41;;;;;;;3.27;2.20;;;;;;;28.84;35.83;98916.73;1684344;85;21009;-40
2022/06/25 09:18:13;;;;;;;7.90;2.00;;;;;;;29.08;36.38;98922.48;1683806;85;21002;-41
2022/06/25 09:21:00;;;;;;;9.45;2.22;;;;;;;29.23;35.08;98925.77;1684102;85;21597;-38
2022/06/25 09:23:29;;;;;;;3.02;2.00;;;;;;;29.40;35.11;98920.72;1684210;85;21016;-39
2022/06/25 09:26:11;;;;;;;9.95;2.52;;;;;;;29.69;34.57;98921.19;1683443;85;21050;-40
2022/06/25 09:28:40;;;;;;;25.27;3.58;;;;;;;29.88;34.45;98924.01;1684234;85;21056;-41
2022/06/25 09:31:07;;;;;;;5.33;2.37;;;;;;;30.21;34.27;98916.43;1684179;85;21013;-41
2022/06/25 09:33:36;;;;;;;6.28;2.60;;;;;;;30.50;33.63;98918.19;1684682;85;21570;-40
2022/06/25 09:36:03;;;;;;;3.37;2.05;;;;;;;30.84;33.63;98910.54;1684236;85;21013;-41
2022/06/25 09:38:28;;;;;;;8.78;2.42;;;;;;;31.22;33.44;98911.36;1684561;85;21016;-41
2022/06/25 09:40:57;;;;;;;4.13;2.13;;;;;;;31.70;33.03;98907.28;1684580;85;21495;-40
2022/06/25 09:43:27;;;;;;;8.58;2.37;;;;;;;32.21;31.77;98916.46;1684527;85;21050;-39
2022/06/25 09:45:57;;;;;;;5.67;2.22;;;;;;;33.15;30.86;98920.52;1743359;81;21510;-40
2022/06/25 09:48:29;;;;;;;7.03;2.10;;;;;;;33.15;30.86;98920.52;1743343;82;21020;-41
2022/06/25 09:51:20;;;;;;;4.53;2.10;;;;;;;33.69;29.28;98922.11;1743372;82;21001;-40
2022/06/25 09:53:55;;;;;;;2.72;1.70;;;;;;;34.10;28.53;98925.00;1743393;82;21012;-42
2022/06/25 09:56:27;;;;;;;6.12;2.37;;;;;;;34.47;27.45;98923.15;1743551;82;21178;-39
2022/06/25 09:58:54;;;;;;;5.05;2.02;;;;;;;34.71;26.71;98916.99;1743321;82;21000;-40
2022/06/25 10:01:26;;;;;;;4.58;1.90;;;;;;;34.94;23.80;98926.02;1743348;82;21463;-39
2022/06/25 10:03:53;;;;;;;9.78;2.12;;;;;;;35.35;24.89;98912.34;1742229;82;20997;-40
2022/06/25 10:06:21;;;;;;;8.08;2.15;;;;;;;35.48;23.89;98922.59;1743264;82;21001;-39
2022/06/25 10:08:59;;;;;;;8.40;2.08;;;;;;;35.67;24.17;98914.84;1743363;82;21516;-39
2022/06/25 10:11:28;;;;;;;10.23;2.17;;;;;;;35.87;24.14;98904.11;1743377;82;21458;-42
2022/06/25 10:13:55;;;;;;;12.58;2.80;;;;;;;36.27;23.80;98921.17;1743358;82;20988;-41
2022/06/25 10:16:23;;;;;;;4.08;2.20;;;;;;;36.63;23.62;98914.56;1743392;82;21006;-40
2022/06/25 10:18:49;;;;;;;7.97;2.27;;;;;;;36.91;22.90;98916.09;1743486;82;21028;-40
2022/06/25 10:21:21;;;;;;;12.60;2.40;;;;;;;37.15;22.78;98914.27;1743330;82;21367;-38
2022/06/25 10:23:55;;;;;;;9.30;2.30;;;;;;;37.31;23.37;98921.48;1743405;82;21032;-41
2022/06/25 10:26:21;;;;;;;5.20;1.82;;;;;;;37.65;21.61;98919.69;1743285;82;20998;-41
2022/06/25 10:28:48;;;;;;;4.95;2.00;;;;;;;37.85;21.45;98920.25;1743287;82;20981;-40
2022/06/25 10:31:16;;;;;;;2.60;1.60;;;;;;;38.06;21.41;98916.98;1743286;82;20969;-39
2022/06/25 10:34:05;;;;;;;3.83;1.95;;;;;;;38.07;21.60;98915.05;1743540;82;21031;-40
2022/06/25 10:36:48;;;;;;;3.42;1.52;;;;;;;38.50;21.94;98915.59;1743300;82;21005;-42
2022/06/25 10:39:33;;;;;;;5.00;1.90;;;;;;;38.56;20.72;98911.75;1743256;82;20977;-41
2022/06/25 10:45:10;;;;;;;5.47;2.40;;;;;;;39.30;20.54;98914.80;1741391;82;21016;-39
2022/06/25 10:47:40;;;;;;;;;;;;;;;39.43;20.04;98916.91;1742200;82;21052;-38
2022/06/25 10:50:25;;;;;;;;;;;;;;;39.27;18.94;98916.17;1742838;81;20138;-40
2022/06/25 10:53:06;;;;;;;;;;;;;;;39.40;20.91;98913.91;1746919;82;20111;-40
2022/06/25 10:55:39;;;;;;;;;;;;;;;39.71;20.33;98919.53;1746895;81;20099;-40
2022/06/25 10:58:16;;;;;;;;;;;;;;;39.58;18.55;98923.46;1746763;81;20111;-40
2022/06/25 11:01:00;;;;;;;;;;;;;;;40.03;18.81;98911.31;1746309;82;20123;-40
2022/06/25 11:03:36;;;;;;;;;;;;;;;39.91;18.25;98920.48;1746833;82;20103;-40
2022/06/25 11:06:33;;;;;;;;;;;;;;;40.00;17.19;98923.45;1746676;82;20111;-40
2022/06/25 11:09:14;;;;;;;;;;;;;;;39.97;18.04;98928.16;1746773;82;20103;-39
2022/06/25 11:11:41;;;;;;;;;;;;;;;40.01;17.14;98924.55;1746835;82;20104;-40
2022/06/25 11:14:16;;;;;;;;;;;;;;;39.97;16.47;98911.63;1746632;81;20132;-40
2022/06/25 11:16:41;;;;;;;;;;;;;;;40.17;17.42;98912.01;1746381;82;20416;-41
2022/06/25 11:19:07;;;;;;;;;;;;;;;40.13;18.23;98906.83;1746718;82;20131;-40
2022/06/25 11:21:36;;;;;;;;;;;;;;;40.15;17.75;98904.59;1746831;82;20091;-40
2022/06/25 11:24:17;;;;;;;;;;;;;;;40.32;17.50;98904.99;1746635;82;20107;-41
2022/06/25 11:29:34;;;;;;;;;;;;;;;39.98;17.28;98909.16;1727775;82;20236;-39
2022/06/25 11:31:59;;;;;;;;;;;;;;;40.19;17.35;98904.27;1747091;81;20103;-40
2022/06/25 11:34:28;;;;;;;;;;;;;;;40.44;17.90;98908.22;1746710;82;20139;-40
2022/06/25 11:37:08;;;;;;;;;;;;;;;40.06;17.90;98918.16;1746939;81;20122;-40
2022/06/25 11:39:35;;;;;;;;;;;;;;;39.27;17.99;98911.23;1746922;82;20103;-40
2022/06/25 11:42:01;;;;;;;;;;;;;;;39.40;18.85;98907.03;1746374;82;20111;-42
2022/06/25 11:44:27;;;;;;;;;;;;;;;39.51;17.18;98910.02;1746863;81;20123;-40
2022/06/25 11:46:53;;;;;;;;;;;;;;;39.60;17.39;98912.42;1746013;82;20195;-39
2022/06/25 11:49:22;;;;;;;;;;;;;;;39.77;17.81;98915.34;1746795;82;20554;-40
2022/06/25 11:51:52;;;;;;;;;;;;;;;39.79;17.60;98909.83;1746484;82;20111;-37
2022/06/25 11:54:21;;;;;;;;;;;;;;;39.87;18.18;98902.88;1746861;82;20124;-37
2022/06/25 11:56:49;;;;;;;;;;;;;;;39.96;17.93;98912.77;1746657;82;20444;-39